KAXN/AXN METAR and TAF weather

Enter ICAO airport designator
Station Type Date Time Source
KAXN METAR 2019/12/10 02:53 UTC NOAA

KAXN 100253Z AUTO 30006KT 10SM CLR M23/M26 A2992 RMK AO2 SLP173 T12281256 50014


Station Type Date Time Source
KAXN Decoded METAR 2019/12/10 02:53 UTC NOAA

CHANDLER FIELD, MN, United States (KAXN) 45-52N 095-24W 433M
Dec 09, 2019 - 09:53 PM EST / 2019.12.10 0253 UTC
Wind: from the WNW (300 degrees) at 7 MPH (6 KT):0
Visibility: 10 mile(s):0
Sky conditions: clear
Temperature: -9.0 F (-22.8 C)
Windchill: -23 F (-31 C):2
Dew Point: -14.1 F (-25.6 C)
Relative Humidity: 77%
Pressure (altimeter): 29.92 in. Hg (1013 hPa)
Pressure tendency: 0.04 inches (1.4 hPa) higher than three hours ago
ob: KAXN 100253Z AUTO 30006KT 10SM CLR M23/M26 A2992 RMK AO2 SLP173 T12281256 50014
cycle: 3

Station Type Date Time Source
KAXN TAF 2019/12/09 18:34 UTC NOAA

TAF KAXN 091730Z 0918/1018 32017G25KT P6SM BKN090
FM092200 30012KT P6SM FEW200
FM101200 31010KT P6SM SCT070

Example: see airport list